createdAt,value
2023-05-18T00:00:28.359Z,2.37
2023-05-18T00:01:28.395Z,2.37
2023-05-18T00:02:28.550Z,2.39
2023-05-18T00:03:28.645Z,2.33
2023-05-18T00:04:28.566Z,2.35
2023-05-18T00:05:28.703Z,2.37
2023-05-18T00:06:28.598Z,2.37
2023-05-18T00:07:28.642Z,2.31
2023-05-18T00:08:28.686Z,2.35
2023-05-18T00:09:28.724Z,2.33
2023-05-18T00:10:28.800Z,2.34
2023-05-18T00:11:28.818Z,2.32
2023-05-18T00:12:28.849Z,2.31
2023-05-18T00:13:28.896Z,2.32
2023-05-18T00:14:28.932Z,2.30
2023-05-18T00:15:29.227Z,2.31
2023-05-18T00:16:29.124Z,2.29
2023-05-18T00:17:29.100Z,2.28
2023-05-18T00:18:29.107Z,2.31
2023-05-18T00:19:29.149Z,2.33
2023-05-18T00:20:29.174Z,2.28
2023-05-18T00:21:29.221Z,2.31
2023-05-18T00:22:29.272Z,2.31
2023-05-18T00:23:29.308Z,2.33
2023-05-18T00:24:29.341Z,2.24
2023-05-18T00:25:29.572Z,2.25
2023-05-18T00:26:29.418Z,2.29
2023-05-18T00:27:29.554Z,2.28
2023-05-18T00:28:29.568Z,2.24
2023-05-18T00:29:29.555Z,2.28
2023-05-18T00:30:29.572Z,2.27
2023-05-18T00:31:29.683Z,2.25
2023-05-18T00:32:29.705Z,2.29
2023-05-18T00:33:29.717Z,2.25
2023-05-18T00:34:29.733Z,2.25
2023-05-18T00:35:30.116Z,2.25
2023-05-18T00:36:29.815Z,2.25
2023-05-18T00:37:29.845Z,2.26
2023-05-18T00:38:29.896Z,2.23
2023-05-18T00:39:29.932Z,2.23
2023-05-18T00:40:30.016Z,2.26
2023-05-18T00:41:30.013Z,2.26
2023-05-18T00:42:30.057Z,2.20
2023-05-18T00:43:30.088Z,2.20
2023-05-18T00:44:30.141Z,2.18
2023-05-18T00:45:30.289Z,2.22
2023-05-18T00:46:30.310Z,2.21
2023-05-18T00:47:30.268Z,2.21
2023-05-18T00:48:30.275Z,2.18
2023-05-18T00:49:30.409Z,2.19
2023-05-18T00:50:30.357Z,2.18
2023-05-18T00:51:30.391Z,2.17
2023-05-18T00:52:30.423Z,2.24
2023-05-18T00:53:30.470Z,2.19
2023-05-18T00:54:30.514Z,2.19
2023-05-18T00:55:30.908Z,2.18
2023-05-18T00:56:30.587Z,2.17
2023-05-18T00:57:30.644Z,2.19
2023-05-18T00:58:30.661Z,2.13
2023-05-18T00:59:30.718Z,2.16
2023-05-18T01:00:30.758Z,2.20
2023-05-18T01:01:30.834Z,2.15
2023-05-18T01:02:30.936Z,2.18
2023-05-18T01:03:30.935Z,2.16
2023-05-18T01:04:30.911Z,2.18
2023-05-18T01:05:31.194Z,2.18
2023-05-18T01:06:30.976Z,2.15
2023-05-18T01:07:31.009Z,2.16
2023-05-18T01:08:31.050Z,2.11
2023-05-18T01:09:31.095Z,2.10
2023-05-18T01:10:31.145Z,2.14
2023-05-18T01:11:31.191Z,2.15
2023-05-18T01:12:31.214Z,2.15
2023-05-18T01:13:31.247Z,2.15
2023-05-18T01:14:31.291Z,2.14
2023-05-18T01:15:31.444Z,2.14
2023-05-18T01:16:31.378Z,2.13
2023-05-18T01:17:31.419Z,2.15
2023-05-18T01:18:31.468Z,2.16
2023-05-18T01:19:31.501Z,2.14
2023-05-18T01:20:31.529Z,2.09
2023-05-18T01:21:31.583Z,2.10
2023-05-18T01:22:31.620Z,2.08
2023-05-18T01:23:31.658Z,2.08
2023-05-18T01:24:31.707Z,2.08
2023-05-18T01:25:31.821Z,2.10
2023-05-18T01:26:31.840Z,2.10
2023-05-18T01:27:31.817Z,2.09
2023-05-18T01:28:32.373Z,2.11
2023-05-18T01:29:31.897Z,2.12
2023-05-18T01:30:31.938Z,2.07
2023-05-18T01:31:32.039Z,2.13
2023-05-18T01:32:32.015Z,2.09
2023-05-18T01:33:32.047Z,2.05
2023-05-18T01:34:32.089Z,2.08
2023-05-18T01:35:32.180Z,2.06
2023-05-18T01:36:32.166Z,2.11
2023-05-18T01:37:32.201Z,2.06
2023-05-18T01:38:32.233Z,2.05
2023-05-18T01:39:32.294Z,2.08
2023-05-18T01:40:32.310Z,2.03
2023-05-18T01:41:32.372Z,2.04
2023-05-18T01:42:32.397Z,2.05
2023-05-18T01:43:32.450Z,2.06
2023-05-18T01:44:32.467Z,2.08
2023-05-18T01:45:32.699Z,2.07
2023-05-18T01:46:32.654Z,2.07
2023-05-18T01:47:32.619Z,2.06
2023-05-18T01:48:32.652Z,2.03
2023-05-18T01:49:32.708Z,2.05
2023-05-18T01:50:32.734Z,2.04
2023-05-18T01:51:32.791Z,2.02
2023-05-18T01:52:32.826Z,2.03
2023-05-18T01:53:32.870Z,2.06
2023-05-18T01:54:32.924Z,2.00
2023-05-18T01:55:32.974Z,2.01
2023-05-18T01:56:33.015Z,2.02
2023-05-18T01:57:33.044Z,1.97
2023-05-18T01:58:33.082Z,2.02
2023-05-18T01:59:33.132Z,2.02
2023-05-18T02:00:33.191Z,2.02
2023-05-18T02:01:33.259Z,1.98
2023-05-18T02:02:33.398Z,2.01
2023-05-18T02:03:33.459Z,1.98
2023-05-18T02:04:33.348Z,1.97
2023-05-18T02:05:33.385Z,1.94
2023-05-18T02:06:33.425Z,1.96
2023-05-18T02:07:33.455Z,1.96
2023-05-18T02:08:33.505Z,1.99
2023-05-18T02:09:33.554Z,1.95
2023-05-18T02:10:33.577Z,1.98
2023-05-18T02:11:33.625Z,1.95
2023-05-18T02:12:33.655Z,2.00
2023-05-18T02:13:33.745Z,2.00
2023-05-18T02:14:33.768Z,1.95
2023-05-18T02:15:33.817Z,1.92
2023-05-18T02:16:33.905Z,1.94
2023-05-18T02:17:33.924Z,1.93
2023-05-18T02:18:33.948Z,1.92
2023-05-18T02:19:33.988Z,1.97
2023-05-18T02:20:34.018Z,1.93
2023-05-18T02:21:34.056Z,1.94
2023-05-18T02:22:34.103Z,1.92
2023-05-18T02:23:34.177Z,1.93
2023-05-18T02:24:34.218Z,1.93
2023-05-18T02:25:34.233Z,1.92
2023-05-18T02:26:34.287Z,1.94
2023-05-18T02:27:34.320Z,1.93
2023-05-18T02:28:34.362Z,1.89
2023-05-18T02:29:34.429Z,1.91
2023-05-18T02:30:34.443Z,1.93
2023-05-18T02:31:34.517Z,1.92
2023-05-18T02:32:34.542Z,1.93
2023-05-18T02:33:34.584Z,1.87
2023-05-18T02:34:34.611Z,1.87
2023-05-18T02:35:34.641Z,1.88
2023-05-18T02:36:34.694Z,1.91
2023-05-18T02:37:34.721Z,1.89
2023-05-18T02:38:34.770Z,1.91
2023-05-18T02:39:34.807Z,1.88
2023-05-18T02:40:34.831Z,1.87
2023-05-18T02:41:34.844Z,1.88
2023-05-18T02:42:34.858Z,1.87
2023-05-18T02:43:34.873Z,1.87
2023-05-18T02:44:34.897Z,1.87
2023-05-18T02:45:34.948Z,1.88
2023-05-18T02:46:34.939Z,1.87
2023-05-18T02:47:34.986Z,1.87
2023-05-18T02:48:34.977Z,1.87
2023-05-18T02:49:34.995Z,1.88
2023-05-18T02:50:35.001Z,1.88
2023-05-18T02:51:35.017Z,1.85
2023-05-18T02:52:35.034Z,1.88
2023-05-18T02:53:35.878Z,1.83
2023-05-18T02:54:35.061Z,1.85
2023-05-18T02:55:35.086Z,1.86
2023-05-18T02:56:35.100Z,1.81
2023-05-18T02:57:35.118Z,1.84
2023-05-18T02:58:35.356Z,1.84
2023-05-18T02:59:35.155Z,1.86
2023-05-18T03:00:35.179Z,1.80
2023-05-18T03:01:35.266Z,1.87
2023-05-18T03:02:35.243Z,1.83
2023-05-18T03:03:35.233Z,1.83
2023-05-18T03:04:35.239Z,1.84
2023-05-18T03:05:35.243Z,1.84
2023-05-18T03:06:35.263Z,1.83
2023-05-18T03:07:35.280Z,1.80
2023-05-18T03:08:35.295Z,1.79
2023-05-18T03:09:35.321Z,1.85
2023-05-18T03:10:35.334Z,1.78
2023-05-18T03:11:35.347Z,1.82
2023-05-18T03:12:35.364Z,1.81
2023-05-18T03:13:35.381Z,1.78
2023-05-18T03:14:35.402Z,1.78
2023-05-18T03:15:35.417Z,1.82
2023-05-18T03:16:35.536Z,1.79
2023-05-18T03:17:35.436Z,1.79
2023-05-18T03:18:35.490Z,1.75
2023-05-18T03:19:35.462Z,1.79
2023-05-18T03:20:35.484Z,1.77
2023-05-18T03:21:35.498Z,1.79
2023-05-18T03:22:35.528Z,1.79
2023-05-18T03:23:35.542Z,1.78
2023-05-18T03:24:35.550Z,1.79
2023-05-18T03:25:35.569Z,1.75
2023-05-18T03:26:35.604Z,1.77
2023-05-18T03:27:35.612Z,1.79
2023-05-18T03:28:36.405Z,1.79
2023-05-18T03:29:35.656Z,1.75
2023-05-18T03:30:35.666Z,1.77
2023-05-18T03:31:35.727Z,1.73
2023-05-18T03:32:35.717Z,1.79
2023-05-18T03:33:35.712Z,1.78
2023-05-18T03:34:35.741Z,1.71
2023-05-18T03:35:35.744Z,1.75
2023-05-18T03:36:35.884Z,1.79
2023-05-18T03:37:35.785Z,1.74
2023-05-18T03:38:35.790Z,1.74
2023-05-18T03:39:35.813Z,1.71
2023-05-18T03:40:35.842Z,1.76
2023-05-18T03:41:35.844Z,1.69
2023-05-18T03:42:35.867Z,1.75
2023-05-18T03:43:35.907Z,1.73
2023-05-18T03:44:35.902Z,1.70
2023-05-18T03:45:35.935Z,1.74
2023-05-18T03:46:35.979Z,1.74
2023-05-18T03:47:35.971Z,1.72
2023-05-18T03:48:35.986Z,1.71
2023-05-18T03:49:36.009Z,1.74
2023-05-18T03:50:36.017Z,1.73
2023-05-18T03:51:36.033Z,1.69
2023-05-18T03:52:36.067Z,1.68
2023-05-18T03:53:36.086Z,1.71
2023-05-18T03:54:36.094Z,1.72
2023-05-18T03:55:36.127Z,1.72
2023-05-18T03:56:36.133Z,1.71
2023-05-18T03:57:36.151Z,1.73
2023-05-18T03:58:36.161Z,1.68
2023-05-18T03:59:36.187Z,1.66
2023-05-18T04:00:36.206Z,1.71
2023-05-18T04:01:36.252Z,1.68
2023-05-18T04:02:36.353Z,1.68
2023-05-18T04:03:36.332Z,1.65
2023-05-18T04:04:36.258Z,1.66
2023-05-18T04:05:36.296Z,1.70
2023-05-18T04:06:36.335Z,1.68
2023-05-18T04:07:36.331Z,1.69
2023-05-18T04:08:36.348Z,1.68
2023-05-18T04:09:36.389Z,1.65
2023-05-18T04:10:36.403Z,1.68
2023-05-18T04:11:36.397Z,1.68
2023-05-18T04:12:36.424Z,1.65
2023-05-18T04:13:36.428Z,1.64
2023-05-18T04:14:36.455Z,1.66
2023-05-18T04:15:36.491Z,1.66
2023-05-18T04:16:36.543Z,1.66
2023-05-18T04:17:36.555Z,1.62
2023-05-18T04:18:36.654Z,1.63
2023-05-18T04:19:36.659Z,1.63
2023-05-18T04:20:36.584Z,1.65
2023-05-18T04:21:36.608Z,1.64
2023-05-18T04:22:36.615Z,1.65
2023-05-18T04:23:36.648Z,1.62
2023-05-18T04:24:36.674Z,1.61
2023-05-18T04:25:36.663Z,1.65
2023-05-18T04:26:36.816Z,1.66
2023-05-18T04:27:36.707Z,1.63
2023-05-18T04:28:36.722Z,1.62
2023-05-18T04:29:36.750Z,1.61
2023-05-18T04:30:36.754Z,1.63
2023-05-18T04:31:36.788Z,1.60
2023-05-18T04:32:36.852Z,1.62
2023-05-18T04:33:36.816Z,1.62
2023-05-18T04:34:36.844Z,1.62
2023-05-18T04:35:36.879Z,1.61
2023-05-18T04:36:36.897Z,1.63
2023-05-18T04:37:36.898Z,1.62
2023-05-18T04:38:36.926Z,1.61
2023-05-18T04:39:36.945Z,1.59
2023-05-18T04:40:36.964Z,1.62
2023-05-18T04:41:36.976Z,1.60
2023-05-18T04:42:37.018Z,1.61
2023-05-18T04:43:37.079Z,1.61
2023-05-18T04:44:37.054Z,1.59
2023-05-18T04:45:37.113Z,1.60
2023-05-18T04:46:37.106Z,1.62
2023-05-18T04:47:37.193Z,1.59
2023-05-18T04:48:37.147Z,1.58
2023-05-18T04:49:37.160Z,1.59
2023-05-18T04:50:37.238Z,1.61
2023-05-18T04:51:37.206Z,1.57
2023-05-18T04:52:37.226Z,1.57
2023-05-18T04:53:37.254Z,1.58
2023-05-18T04:54:37.280Z,1.58
2023-05-18T04:55:37.313Z,1.58
2023-05-18T04:56:37.350Z,1.54
2023-05-18T04:57:37.347Z,1.55
2023-05-18T04:58:37.371Z,1.55
2023-05-18T04:59:37.397Z,1.52
2023-05-18T05:00:37.430Z,1.55
2023-05-18T05:01:37.498Z,1.57
2023-05-18T05:02:37.548Z,1.57
2023-05-18T05:03:37.536Z,1.56
2023-05-18T05:04:37.550Z,1.58
2023-05-18T05:05:37.537Z,1.57
2023-05-18T05:06:37.565Z,1.53
2023-05-18T05:07:37.587Z,1.53
2023-05-18T05:08:37.602Z,1.56
2023-05-18T05:09:37.637Z,1.57
2023-05-18T05:10:37.646Z,1.52
2023-05-18T05:11:37.657Z,1.54
2023-05-18T05:12:37.687Z,1.52
2023-05-18T05:13:37.716Z,1.54
2023-05-18T05:14:37.720Z,1.51
2023-05-18T05:15:37.775Z,1.51
2023-05-18T05:16:37.776Z,1.54
2023-05-18T05:17:37.845Z,1.54
2023-05-18T05:18:37.860Z,1.50
2023-05-18T05:19:37.841Z,1.52
2023-05-18T05:20:37.868Z,1.50
2023-05-18T05:21:37.895Z,1.51
2023-05-18T05:22:37.938Z,1.52
2023-05-18T05:23:37.926Z,1.51
2023-05-18T05:24:37.937Z,1.50
2023-05-18T05:25:37.958Z,1.52
2023-05-18T05:26:38.009Z,1.47
2023-05-18T05:27:37.998Z,1.50
2023-05-18T05:28:38.025Z,1.50
2023-05-18T05:29:38.047Z,1.48
2023-05-18T05:30:38.070Z,1.49
2023-05-18T05:31:38.187Z,1.50
2023-05-18T05:32:38.208Z,1.46
2023-05-18T05:33:38.139Z,1.49
2023-05-18T05:34:38.374Z,1.52
2023-05-18T05:35:38.359Z,1.50
2023-05-18T05:36:38.206Z,1.49
2023-05-18T05:37:38.234Z,1.48
2023-05-18T05:38:38.265Z,1.48
2023-05-18T05:39:38.284Z,1.45
2023-05-18T05:40:38.300Z,1.47
2023-05-18T05:41:38.875Z,1.48
2023-05-18T05:42:38.351Z,1.45
2023-05-18T05:43:38.379Z,1.46
2023-05-18T05:44:38.416Z,1.46
2023-05-18T05:45:38.436Z,1.46
2023-05-18T05:46:38.529Z,1.45
2023-05-18T05:47:38.538Z,1.45
2023-05-18T05:48:38.505Z,1.46
2023-05-18T05:49:38.530Z,1.45
2023-05-18T05:50:38.559Z,1.44
2023-05-18T05:51:38.586Z,1.45
2023-05-18T05:52:38.610Z,1.46
2023-05-18T05:53:38.625Z,1.47
2023-05-18T05:54:38.650Z,1.44
2023-05-18T05:55:39.376Z,1.45
2023-05-18T05:56:38.704Z,1.44
2023-05-18T05:57:38.709Z,1.43
2023-05-18T05:58:38.731Z,1.44
2023-05-18T05:59:38.763Z,1.45
2023-05-18T06:00:38.772Z,1.43
2023-05-18T06:01:38.846Z,1.44
2023-05-18T06:02:38.930Z,1.44
2023-05-18T06:03:39.153Z,1.46
2023-05-18T06:04:38.871Z,1.42
2023-05-18T06:05:38.882Z,1.44
2023-05-18T06:06:38.912Z,1.43
2023-05-18T06:07:38.936Z,1.43
2023-05-18T06:08:38.963Z,1.45
2023-05-18T06:09:38.992Z,1.40
2023-05-18T06:10:38.997Z,1.45
2023-05-18T06:11:39.032Z,1.44
2023-05-18T06:12:39.048Z,1.47
2023-05-18T06:13:39.084Z,1.43
2023-05-18T06:14:39.101Z,1.44
2023-05-18T06:15:39.121Z,1.42
2023-05-18T06:16:39.162Z,1.44
2023-05-18T06:17:39.211Z,1.41
2023-05-18T06:18:39.204Z,1.41
2023-05-18T06:19:39.208Z,1.43
2023-05-18T06:20:39.245Z,1.39
2023-05-18T06:21:39.265Z,1.42
2023-05-18T06:22:39.283Z,1.41
2023-05-18T06:23:41.704Z,1.40
2023-05-18T06:24:39.536Z,1.38
2023-05-18T06:25:39.556Z,1.43
2023-05-18T06:26:39.570Z,1.40
2023-05-18T06:27:39.592Z,1.41
2023-05-18T06:28:39.620Z,1.41
2023-05-18T06:29:39.635Z,1.40
2023-05-18T06:30:39.660Z,1.39
2023-05-18T06:31:39.804Z,1.36
2023-05-18T06:32:39.734Z,1.42
2023-05-18T06:33:39.720Z,1.40
2023-05-18T06:34:39.761Z,1.39
2023-05-18T06:35:39.775Z,1.39
2023-05-18T06:36:39.795Z,1.39
2023-05-18T06:37:39.846Z,1.36
2023-05-18T06:38:39.840Z,1.38
2023-05-18T06:39:39.860Z,1.37
2023-05-18T06:40:39.893Z,1.38
2023-05-18T06:41:39.914Z,1.40
2023-05-18T06:42:39.971Z,1.38
2023-05-18T06:43:39.962Z,1.37
2023-05-18T06:44:39.996Z,1.38
2023-05-18T06:45:39.998Z,1.38
2023-05-18T06:46:40.096Z,1.36
2023-05-18T06:47:40.097Z,1.36
2023-05-18T06:48:40.099Z,1.38
2023-05-18T06:49:40.121Z,1.36
2023-05-18T06:50:40.146Z,1.38
2023-05-18T06:51:40.165Z,1.36
2023-05-18T06:52:40.196Z,1.35
2023-05-18T06:53:40.242Z,1.36
2023-05-18T06:54:40.250Z,1.37
2023-05-18T06:55:40.266Z,1.36
2023-05-18T06:56:40.288Z,1.35
2023-05-18T06:57:40.326Z,1.35
2023-05-18T06:58:40.324Z,1.35
2023-05-18T06:59:40.351Z,1.36
2023-05-18T07:00:40.368Z,1.37
2023-05-18T07:01:40.437Z,1.34
2023-05-18T07:02:40.453Z,1.38
2023-05-18T07:03:40.452Z,1.36
2023-05-18T07:04:40.441Z,1.35
2023-05-18T07:05:40.462Z,1.34
2023-05-18T07:06:40.471Z,1.36
2023-05-18T07:07:40.505Z,1.38
2023-05-18T07:08:40.510Z,1.34
2023-05-18T07:09:40.513Z,1.35
2023-05-18T07:10:40.522Z,1.34
2023-05-18T07:11:40.563Z,1.35
2023-05-18T07:12:40.553Z,1.33
2023-05-18T07:13:40.571Z,1.36
2023-05-18T07:14:40.580Z,1.34
2023-05-18T07:15:40.636Z,1.32
2023-05-18T07:16:40.604Z,1.35
2023-05-18T07:17:40.659Z,1.31
2023-05-18T07:18:40.672Z,1.32
2023-05-18T07:19:40.635Z,1.35
2023-05-18T07:20:40.659Z,1.31
2023-05-18T07:21:40.680Z,1.33
2023-05-18T07:22:40.726Z,1.31
2023-05-18T07:23:40.776Z,1.32
2023-05-18T07:24:40.836Z,1.33
2023-05-18T07:25:40.875Z,1.31
2023-05-18T07:26:40.947Z,1.33
2023-05-18T07:27:40.960Z,1.30
2023-05-18T07:28:41.002Z,1.34
2023-05-18T07:29:41.051Z,1.30
2023-05-18T07:30:41.132Z,1.30
2023-05-18T07:31:41.207Z,1.30
2023-05-18T07:32:41.198Z,1.31
2023-05-18T07:33:41.264Z,1.32
2023-05-18T07:34:41.251Z,1.30
2023-05-18T07:35:41.298Z,1.32
2023-05-18T07:36:41.333Z,1.31
2023-05-18T07:37:41.393Z,1.27
2023-05-18T07:38:41.415Z,1.30
2023-05-18T07:39:41.453Z,1.29
2023-05-18T07:40:41.495Z,1.29
2023-05-18T07:41:41.536Z,1.30
2023-05-18T07:42:41.592Z,1.28
2023-05-18T07:43:41.632Z,1.29
2023-05-18T07:44:41.662Z,1.28
2023-05-18T07:45:41.708Z,1.29
2023-05-18T07:46:41.771Z,1.29
2023-05-18T07:47:41.835Z,1.27
2023-05-18T07:48:41.834Z,1.27
2023-05-18T07:49:41.888Z,1.28
2023-05-18T07:50:41.941Z,1.27
2023-05-18T07:51:41.979Z,1.27
2023-05-18T07:52:42.026Z,1.28
2023-05-18T07:53:42.067Z,1.28
2023-05-18T07:54:42.114Z,1.27
2023-05-18T07:55:42.179Z,1.28
2023-05-18T07:56:42.203Z,1.27
2023-05-18T07:57:42.294Z,1.25
2023-05-18T07:58:42.301Z,1.26
2023-05-18T07:59:42.360Z,1.26
2023-05-18T08:00:42.404Z,1.25
2023-05-18T08:01:42.473Z,1.26
2023-05-18T08:02:42.646Z,1.26
2023-05-18T08:03:42.659Z,1.27
2023-05-18T08:04:42.558Z,1.27
2023-05-18T08:05:42.599Z,1.26
2023-05-18T08:06:42.653Z,1.23
2023-05-18T08:07:42.690Z,1.27
2023-05-18T08:08:42.844Z,1.25
2023-05-18T08:09:42.823Z,1.25
2023-05-18T08:10:42.869Z,1.27
2023-05-18T08:11:42.881Z,1.25
2023-05-18T08:12:42.918Z,1.24
2023-05-18T08:13:42.963Z,1.25
2023-05-18T08:14:43.029Z,1.24
2023-05-18T08:15:43.071Z,1.22
2023-05-18T08:16:43.206Z,1.24
2023-05-18T08:17:43.172Z,1.23
2023-05-18T08:18:43.238Z,1.25
2023-05-18T08:19:43.261Z,1.24
2023-05-18T08:20:43.315Z,1.24
2023-05-18T08:21:43.358Z,1.24
2023-05-18T08:22:43.396Z,1.25
2023-05-18T08:23:43.458Z,1.23
2023-05-18T08:24:43.488Z,1.22
2023-05-18T08:25:43.548Z,1.21
2023-05-18T08:26:43.585Z,1.24
2023-05-18T08:27:43.639Z,1.23
2023-05-18T08:28:43.694Z,1.22
2023-05-18T08:29:43.734Z,1.22
2023-05-18T08:30:43.789Z,1.21
2023-05-18T08:31:43.918Z,1.23
2023-05-18T08:32:43.905Z,1.19
2023-05-18T08:33:43.929Z,1.21
2023-05-18T08:34:43.963Z,1.22
2023-05-18T08:35:44.027Z,1.20
2023-05-18T08:36:44.057Z,1.19
2023-05-18T08:37:44.121Z,1.21
2023-05-18T08:38:44.170Z,1.20
2023-05-18T08:39:44.222Z,1.22
2023-05-18T08:40:44.279Z,1.21
2023-05-18T08:41:44.312Z,1.21
2023-05-18T08:42:49.939Z,1.22
2023-05-18T08:43:45.381Z,1.22
2023-05-18T08:44:44.409Z,1.22
2023-05-18T08:45:44.425Z,1.22
2023-05-18T08:46:44.433Z,1.22
2023-05-18T08:47:44.488Z,1.19
2023-05-18T08:48:44.498Z,1.20
2023-05-18T08:49:44.485Z,1.19
2023-05-18T08:50:44.505Z,1.16
2023-05-18T08:51:44.533Z,1.20
2023-05-18T08:52:44.532Z,1.18
2023-05-18T08:53:44.555Z,1.18
2023-05-18T08:54:44.560Z,1.16
2023-05-18T08:55:44.585Z,1.21
2023-05-18T08:56:44.599Z,1.16
2023-05-18T08:57:44.624Z,1.19
2023-05-18T08:58:44.671Z,1.16
2023-05-18T08:59:44.704Z,1.16
2023-05-18T09:00:44.756Z,1.19
2023-05-18T09:01:44.828Z,1.18
2023-05-18T09:02:44.890Z,1.18
2023-05-18T09:03:44.880Z,1.19
2023-05-18T09:04:44.996Z,1.18
2023-05-18T09:05:44.990Z,1.17
2023-05-18T09:06:45.024Z,1.18
2023-05-18T09:07:45.070Z,1.15
2023-05-18T09:08:45.107Z,1.17
2023-05-18T09:09:45.157Z,1.17
2023-05-18T09:10:45.218Z,1.14
2023-05-18T09:11:45.238Z,1.16
2023-05-18T09:12:45.428Z,1.15
2023-05-18T09:13:45.333Z,1.17
2023-05-18T09:14:45.376Z,1.16
2023-05-18T09:15:45.487Z,1.15
2023-05-18T09:16:45.458Z,1.15
2023-05-18T09:17:45.549Z,1.16
2023-05-18T09:18:45.565Z,1.16
2023-05-18T09:19:45.591Z,1.16
2023-05-18T09:20:46.407Z,1.17
2023-05-18T09:21:45.679Z,1.14
2023-05-18T09:22:45.708Z,1.14
2023-05-18T09:23:45.761Z,1.13
2023-05-18T09:24:45.800Z,1.14
2023-05-18T09:25:45.848Z,1.15
2023-05-18T09:26:45.879Z,1.13
2023-05-18T09:27:45.920Z,1.13
2023-05-18T09:28:45.985Z,1.15
2023-05-18T09:29:46.022Z,1.14
2023-05-18T09:30:46.075Z,1.15
2023-05-18T09:31:46.194Z,1.14
2023-05-18T09:32:46.182Z,1.13
2023-05-18T09:33:46.333Z,1.14
2023-05-18T09:34:46.263Z,1.13
2023-05-18T09:35:46.344Z,1.13
2023-05-18T09:36:46.350Z,1.14
2023-05-18T09:37:46.398Z,1.14
2023-05-18T09:38:46.511Z,1.11
2023-05-18T09:39:46.503Z,1.12
2023-05-18T09:40:46.550Z,1.13
2023-05-18T09:41:46.762Z,1.13
2023-05-18T09:42:46.648Z,1.10
2023-05-18T09:43:46.699Z,1.12
2023-05-18T09:44:46.824Z,1.13
2023-05-18T09:45:46.788Z,1.13
2023-05-18T09:46:46.884Z,1.14
2023-05-18T09:47:46.953Z,1.12
2023-05-18T09:48:46.910Z,1.13
2023-05-18T09:49:46.949Z,1.13
2023-05-18T09:50:46.999Z,1.11
2023-05-18T09:51:47.030Z,1.10
2023-05-18T09:52:47.071Z,1.11
2023-05-18T09:53:47.121Z,1.11
2023-05-18T09:54:47.163Z,1.12
2023-05-18T09:55:47.206Z,1.12
2023-05-18T09:56:58.463Z,1.12
2023-05-18T09:57:48.266Z,1.12
2023-05-18T09:58:47.263Z,1.12
2023-05-18T09:59:47.279Z,1.12
2023-05-18T10:00:47.312Z,1.12
2023-05-18T10:01:47.311Z,1.11
2023-05-18T10:02:47.411Z,1.12
2023-05-18T10:03:47.394Z,1.11
2023-05-18T10:04:47.385Z,1.10
2023-05-18T10:05:47.360Z,1.11
2023-05-18T10:06:47.374Z,1.12
2023-05-18T10:07:47.378Z,1.11
2023-05-18T10:08:47.389Z,1.08
2023-05-18T10:09:47.404Z,1.10
2023-05-18T10:10:47.422Z,1.11
2023-05-18T10:11:47.578Z,1.11
2023-05-18T10:12:47.445Z,1.10
2023-05-18T10:13:47.444Z,1.12
2023-05-18T10:14:47.465Z,1.11
2023-05-18T10:15:47.475Z,1.08
2023-05-18T10:16:47.511Z,1.11
2023-05-18T10:17:47.686Z,1.09
2023-05-18T10:18:47.534Z,1.09
2023-05-18T10:19:47.560Z,1.11
2023-05-18T10:20:47.598Z,1.10
2023-05-18T10:21:47.644Z,1.11
2023-05-18T10:22:47.678Z,1.08
2023-05-18T10:23:47.722Z,1.09
2023-05-18T10:24:47.765Z,1.09
2023-05-18T10:25:47.803Z,1.10
2023-05-18T10:26:47.838Z,1.11
2023-05-18T10:27:47.871Z,1.08
2023-05-18T10:28:47.906Z,1.10
2023-05-18T10:29:47.953Z,1.09
2023-05-18T10:30:48.049Z,1.08
2023-05-18T10:31:48.043Z,1.10
2023-05-18T10:32:48.120Z,1.12
2023-05-18T10:33:48.098Z,1.09
2023-05-18T10:34:48.133Z,1.09
2023-05-18T10:35:48.190Z,1.09
2023-05-18T10:36:48.223Z,1.10
2023-05-18T10:37:48.281Z,1.05
2023-05-18T10:38:48.302Z,1.11
2023-05-18T10:39:48.334Z,1.07
2023-05-18T10:40:48.365Z,1.09
2023-05-18T10:41:48.549Z,1.09
2023-05-18T10:42:48.413Z,1.11
2023-05-18T10:43:48.423Z,1.09
2023-05-18T10:44:48.437Z,1.08
2023-05-18T10:45:48.476Z,1.08
2023-05-18T10:46:48.586Z,1.07
2023-05-18T10:47:48.697Z,1.07
2023-05-18T10:48:48.523Z,1.10
2023-05-18T10:49:48.531Z,1.07
2023-05-18T10:50:48.554Z,1.08
2023-05-18T10:51:48.567Z,1.09
2023-05-18T10:52:48.641Z,1.08
2023-05-18T10:53:48.595Z,1.07
2023-05-18T10:54:48.610Z,1.08
2023-05-18T10:55:48.671Z,1.09
2023-05-18T10:56:48.653Z,1.07
2023-05-18T10:57:48.664Z,1.09
2023-05-18T10:58:48.680Z,1.06
2023-05-18T10:59:48.765Z,1.07
2023-05-18T11:00:48.705Z,1.08
2023-05-18T11:01:48.788Z,1.06
2023-05-18T11:02:48.793Z,1.07
2023-05-18T11:03:48.753Z,1.06
2023-05-18T11:04:49.242Z,1.06
2023-05-18T11:05:48.777Z,1.06
2023-05-18T11:06:48.793Z,1.05
2023-05-18T11:07:48.799Z,1.05
2023-05-18T11:08:48.820Z,1.06
2023-05-18T11:09:48.908Z,1.06
2023-05-18T11:10:48.848Z,1.08
2023-05-18T11:11:48.848Z,1.05
2023-05-18T11:12:48.891Z,1.06
2023-05-18T11:13:48.886Z,1.06
2023-05-18T11:14:48.902Z,1.06
2023-05-18T11:15:48.971Z,1.06
2023-05-18T11:16:49.137Z,1.06
2023-05-18T11:17:48.948Z,1.06
2023-05-18T11:18:48.972Z,1.08
2023-05-18T11:19:48.958Z,1.06
2023-05-18T11:20:48.971Z,1.06
2023-05-18T11:21:48.997Z,1.07
2023-05-18T11:22:49.004Z,1.06
2023-05-18T11:23:49.009Z,1.06
2023-05-18T11:24:49.018Z,1.06
2023-05-18T11:25:49.026Z,1.08
2023-05-18T11:26:49.050Z,1.09
2023-05-18T11:27:49.051Z,1.05
2023-05-18T11:28:49.776Z,1.07
2023-05-18T11:29:50.693Z,1.07
2023-05-18T11:30:49.083Z,1.08
2023-05-18T11:31:49.134Z,1.06
2023-05-18T11:32:49.148Z,1.07
2023-05-18T11:33:49.118Z,1.07
2023-05-18T11:34:49.102Z,1.06
2023-05-18T11:35:49.122Z,1.05
2023-05-18T11:36:49.121Z,1.08
2023-05-18T11:37:49.131Z,1.07
2023-05-18T11:38:49.147Z,1.08
2023-05-18T11:39:58.607Z,1.07
2023-05-18T11:40:50.153Z,1.06
2023-05-18T11:41:49.158Z,1.08
2023-05-18T11:42:49.168Z,1.07
2023-05-18T11:43:49.179Z,1.06
2023-05-18T11:44:49.192Z,1.05
2023-05-18T11:45:49.199Z,1.06
2023-05-18T11:46:49.223Z,1.06
2023-05-18T11:47:49.310Z,1.07
2023-05-18T11:48:49.371Z,1.06
2023-05-18T11:49:49.259Z,1.06
2023-05-18T11:50:49.250Z,1.06
2023-05-18T11:51:49.260Z,1.04
2023-05-18T11:52:49.283Z,1.06
2023-05-18T11:53:49.288Z,1.06
2023-05-18T11:54:49.291Z,1.05
2023-05-18T11:55:49.309Z,1.05
2023-05-18T11:56:49.316Z,1.04
2023-05-18T11:57:49.331Z,1.03
2023-05-18T11:58:49.346Z,1.07
2023-05-18T11:59:49.361Z,1.06
2023-05-18T12:00:49.369Z,1.05
2023-05-18T12:01:49.403Z,1.06
2023-05-18T12:02:49.735Z,1.07
2023-05-18T12:03:49.506Z,1.05
2023-05-18T12:04:49.473Z,1.05
2023-05-18T12:05:49.476Z,1.04
2023-05-18T12:06:49.454Z,1.04
2023-05-18T12:07:49.462Z,1.04
2023-05-18T12:08:49.484Z,1.07
2023-05-18T12:09:49.508Z,1.04
2023-05-18T12:10:49.536Z,1.06
2023-05-18T12:11:49.538Z,1.06
2023-05-18T12:12:49.548Z,1.05
2023-05-18T12:13:49.582Z,1.04
2023-05-18T12:14:49.598Z,1.05
2023-05-18T12:15:49.594Z,1.05
2023-05-18T12:16:49.631Z,1.03
2023-05-18T12:17:49.682Z,1.05
2023-05-18T12:18:49.641Z,1.05
2023-05-18T12:19:49.639Z,1.04
2023-05-18T12:20:49.650Z,1.05
2023-05-18T12:21:49.663Z,1.06
2023-05-18T12:22:49.837Z,1.03
2023-05-18T12:23:49.694Z,1.03
2023-05-18T12:24:49.693Z,1.03
2023-05-18T12:25:49.707Z,1.05
2023-05-18T12:26:49.719Z,1.03
2023-05-18T12:27:49.729Z,1.05
2023-05-18T12:28:49.744Z,1.01
2023-05-18T12:29:49.768Z,1.04
2023-05-18T12:30:49.820Z,1.03
2023-05-18T12:31:49.813Z,1.03
2023-05-18T12:32:49.859Z,1.05
2023-05-18T12:33:49.802Z,1.02
2023-05-18T12:34:49.819Z,1.05
2023-05-18T12:35:49.816Z,1.06
2023-05-18T12:36:49.828Z,1.04
2023-05-18T12:37:49.831Z,1.06
2023-05-18T12:38:49.836Z,1.04
2023-05-18T12:39:49.865Z,1.03
2023-05-18T12:40:49.858Z,1.03
2023-05-18T12:41:49.862Z,1.05
2023-05-18T12:42:49.876Z,1.03
2023-05-18T12:43:49.876Z,1.06
2023-05-18T12:44:49.891Z,1.02
2023-05-18T12:45:49.905Z,1.03
2023-05-18T12:46:49.969Z,1.03
2023-05-18T12:47:50.001Z,1.04
2023-05-18T12:48:49.934Z,1.01
2023-05-18T12:49:49.963Z,1.01
2023-05-18T12:50:49.975Z,1.02
2023-05-18T12:51:49.984Z,1.04
2023-05-18T12:52:49.980Z,1.03
2023-05-18T12:53:49.985Z,1.02
2023-05-18T12:54:50.877Z,1.03
2023-05-18T12:55:50.014Z,1.02
2023-05-18T12:56:50.032Z,1.04
2023-05-18T12:57:50.036Z,1.03
2023-05-18T12:58:50.047Z,1.00
2023-05-18T12:59:50.064Z,1.04
2023-05-18T13:00:50.074Z,1.00
2023-05-18T13:01:50.175Z,1.00
2023-05-18T13:02:50.139Z,1.01
2023-05-18T13:03:50.150Z,1.01
2023-05-18T13:04:50.133Z,1.01
2023-05-18T13:05:50.140Z,1.01
2023-05-18T13:06:50.159Z,1.01
2023-05-18T13:07:50.159Z,1.01
2023-05-18T13:08:50.175Z,1.02
2023-05-18T13:09:50.179Z,1.02
2023-05-18T13:10:58.417Z,1.03
2023-05-18T13:12:00.225Z,1.03
2023-05-18T13:12:51.213Z,1.03
2023-05-18T13:13:50.246Z,1.03
2023-05-18T13:14:50.214Z,1.03
2023-05-18T13:15:50.219Z,1.03
2023-05-18T13:16:50.327Z,1.02
2023-05-18T13:17:50.253Z,1.01
2023-05-18T13:18:50.260Z,1.02